Accueil
METAR-TAF:

METAR-TAF

Aéroports :

Aéroport de Cherbourg - Maupertus

Cherbourg, France

latitude: 49-39N, longitude: 001-28W, altitude: 138 m

Observation

Le bulletin a été fait il y a 26 minutes, à 02:00 UTC
Vent 10 kt de ouest
Température 15°C
Humidité 94%
Pression 1023 hPa
Visibilité 10 km ou plus
Nuages épars à une hauteur de 700 ft

METAR: LFRC 190200Z AUTO 27010KT 9999 SCT007 15/14 Q1023

Heure: 04:26 (02:26 UTC)

Prévision

Le bulletin a été fait il y a 12 heures et 26 minutes, à 14:00 UTC
Prévision valable du 18 à 15 UTC au 18 à 24 UTC
Vent 13 kt de ouest
Visibilité 10 km ou plus
Nuages fragmentés à une hauteur de 2500 ft
Temporairement
du 18 à 15 UTC au 18 à 18 UTC
Nuages fragmentés à une hauteur de 1300 ft
Evoluant progressivement
du 18 à 19 UTC au 18 à 21 UTC
Vent 5 kt de sud-ouest

TAF: LFRC 181400Z 1815/1824 27013KT 9999 BKN025 TEMPO 1815/1818 BKN013 BECMG 1819/1821 23005KT

Observations et prévisions météorologiques de plus de 4000 aéroports (messages METAR et TAF).

Les stations disponibles sont représentées par des disques jaunes et rouges sur la carte.

Passer la souris dessus pour voir le nom de la station.

Cliquer dessus pour voir les observations et prévisions météorologiques.

Pour changer de carte: cliquez sur les boutons verts avec une croix noire pour zoomer, sur le bouton vert avec un tiret pour effectuer un zoom arrière, ou sur les flèches vertes pour les cartes adjacentes.


METAR-TAF: